createdAt,value
2019-02-17T00:00:41.813Z,18.00
2019-02-17T00:03:33.387Z,15.80
2019-02-17T00:06:23.751Z,15.67
2019-02-17T00:09:14.749Z,16.13
2019-02-17T00:12:04.906Z,18.03
2019-02-17T00:14:54.227Z,18.33
2019-02-17T00:17:44.194Z,15.57
2019-02-17T00:20:34.025Z,18.00
2019-02-17T00:23:24.445Z,15.97
2019-02-17T00:26:14.651Z,17.60
2019-02-17T00:29:04.244Z,23.47
2019-02-17T00:31:54.351Z,16.60
2019-02-17T00:34:45.396Z,14.23
2019-02-17T00:37:35.397Z,14.60
2019-02-17T00:40:25.351Z,16.17
2019-02-17T00:43:15.388Z,20.93
2019-02-17T00:46:05.358Z,20.50
2019-02-17T00:48:55.138Z,21.20
2019-02-17T00:51:45.229Z,14.30
2019-02-17T00:54:35.117Z,16.40
2019-02-17T00:57:24.918Z,14.17
2019-02-17T01:00:15.304Z,12.83
2019-02-17T01:03:05.667Z,14.80
2019-02-17T01:05:55.491Z,13.53
2019-02-17T01:08:45.505Z,13.73
2019-02-17T01:11:34.990Z,14.13
2019-02-17T01:14:25.071Z,17.03
2019-02-17T01:17:14.998Z,14.37
2019-02-17T01:20:05.847Z,11.43
2019-02-17T01:22:55.499Z,12.87
2019-02-17T01:25:45.856Z,16.07
2019-02-17T01:28:35.928Z,12.00
2019-02-17T01:31:25.618Z,12.27
2019-02-17T01:34:15.718Z,16.53
2019-02-17T01:37:06.212Z,15.97
2019-02-17T01:39:56.343Z,12.00
2019-02-17T01:42:46.533Z,12.03
2019-02-17T01:45:36.358Z,24.20
2019-02-17T01:48:26.085Z,13.07
2019-02-17T01:51:16.733Z,15.13
2019-02-17T01:54:06.705Z,15.80
2019-02-17T01:56:56.757Z,11.17
2019-02-17T01:59:46.120Z,16.17
2019-02-17T02:02:36.224Z,15.90
2019-02-17T02:05:26.075Z,20.93
2019-02-17T02:08:15.727Z,13.07
2019-02-17T02:11:06.379Z,15.90
2019-02-17T02:13:56.389Z,12.50
2019-02-17T02:16:46.119Z,12.70
2019-02-17T02:19:35.978Z,14.73
2019-02-17T02:22:25.482Z,18.80
2019-02-17T02:25:15.432Z,27.37
2019-02-17T02:28:05.246Z,22.67
2019-02-17T02:30:54.635Z,11.07
2019-02-17T02:33:47.395Z,11.33
2019-02-17T02:36:37.402Z,17.13
2019-02-17T02:39:27.684Z,11.27
2019-02-17T02:42:17.940Z,10.17
2019-02-17T02:45:09.088Z,12.10
2019-02-17T02:47:58.822Z,18.00
2019-02-17T02:50:48.839Z,17.13
2019-02-17T02:53:39.009Z,20.63
2019-02-17T02:56:28.942Z,15.23
2019-02-17T02:59:19.087Z,14.60
2019-02-17T03:02:08.909Z,19.70
2019-02-17T03:04:59.093Z,12.00
2019-02-17T03:07:49.217Z,14.60
2019-02-17T03:10:38.851Z,12.80
2019-02-17T03:13:28.586Z,13.57
2019-02-17T03:16:18.451Z,18.33
2019-02-17T03:19:08.590Z,13.87
2019-02-17T03:21:58.371Z,13.07
2019-02-17T03:24:48.112Z,16.73
2019-02-17T03:27:37.860Z,20.50
2019-02-17T03:30:27.642Z,15.77
2019-02-17T03:33:17.875Z,11.63
2019-02-17T03:36:08.229Z,16.60
2019-02-17T03:38:57.972Z,11.37
2019-02-17T03:41:48.131Z,18.43
2019-02-17T03:44:37.992Z,13.50
2019-02-17T03:47:28.038Z,12.73
2019-02-17T03:50:18.134Z,14.13
2019-02-17T03:53:08.335Z,13.57
2019-02-17T03:55:58.116Z,15.53
2019-02-17T03:58:47.968Z,15.23
2019-02-17T04:01:37.682Z,16.90
2019-02-17T04:04:27.510Z,15.47
2019-02-17T04:07:17.407Z,14.43
2019-02-17T04:10:08.315Z,15.33
2019-02-17T04:12:58.484Z,15.43
2019-02-17T04:15:49.097Z,14.93
2019-02-17T04:18:39.910Z,17.87
2019-02-17T04:21:29.631Z,12.97
2019-02-17T04:24:19.682Z,13.10
2019-02-17T04:27:09.181Z,13.53
2019-02-17T04:29:59.301Z,15.80
2019-02-17T04:32:49.373Z,17.03
2019-02-17T04:35:39.157Z,14.97
2019-02-17T04:38:29.420Z,19.13
2019-02-17T04:41:19.783Z,17.20
2019-02-17T04:44:10.472Z,12.40
2019-02-17T04:47:01.467Z,16.80
2019-02-17T04:49:50.894Z,14.13
2019-02-17T04:52:40.466Z,13.50
2019-02-17T04:55:30.611Z,12.37
2019-02-17T04:58:20.644Z,12.97
2019-02-17T05:01:10.354Z,13.93
2019-02-17T05:04:00.295Z,18.50
2019-02-17T05:06:50.461Z,22.43
2019-02-17T05:09:40.325Z,14.47
2019-02-17T05:12:30.047Z,15.17
2019-02-17T05:15:20.039Z,13.07
2019-02-17T05:18:10.277Z,12.80
2019-02-17T05:21:00.332Z,18.60
2019-02-17T05:23:50.394Z,12.83
2019-02-17T05:26:40.481Z,15.47
2019-02-17T05:29:30.804Z,15.50
2019-02-17T05:32:20.712Z,16.50
2019-02-17T05:35:10.820Z,13.53
2019-02-17T05:38:00.596Z,16.67
2019-02-17T05:40:50.394Z,14.20
2019-02-17T05:43:40.378Z,15.80
2019-02-17T05:46:32.064Z,19.77
2019-02-17T05:49:21.905Z,17.83
2019-02-17T05:52:11.797Z,14.67
2019-02-17T05:55:01.450Z,14.67
2019-02-17T05:57:51.325Z,17.40
2019-02-17T06:00:41.605Z,17.80
2019-02-17T06:03:31.545Z,17.37
2019-02-17T06:06:21.391Z,18.03
2019-02-17T06:09:11.434Z,20.10
2019-02-17T06:12:01.020Z,15.70
2019-02-17T06:14:51.066Z,18.90
2019-02-17T06:17:40.893Z,15.47
2019-02-17T06:20:30.835Z,17.83
2019-02-17T06:23:20.942Z,19.23
2019-02-17T06:26:11.869Z,16.73
2019-02-17T06:29:01.628Z,19.23
2019-02-17T06:31:51.367Z,22.07
2019-02-17T06:34:41.262Z,23.63
2019-02-17T06:37:31.384Z,22.23
2019-02-17T06:40:21.011Z,24.47
2019-02-17T06:43:11.217Z,23.83
2019-02-17T06:46:01.436Z,22.87
2019-02-17T06:48:51.384Z,20.73
2019-02-17T06:51:41.229Z,24.30
2019-02-17T06:54:31.671Z,24.00
2019-02-17T06:57:29.212Z,19.97
2019-02-17T07:00:31.943Z,25.40
2019-02-17T07:03:21.641Z,19.13
2019-02-17T07:06:16.247Z,26.77
2019-02-17T07:09:07.420Z,26.17
2019-02-17T07:11:57.540Z,23.80
2019-02-17T07:14:47.066Z,25.50
2019-02-17T07:17:37.169Z,26.23
2019-02-17T07:20:27.468Z,30.17
2019-02-17T07:23:17.423Z,24.53
2019-02-17T07:26:07.303Z,27.90
2019-02-17T07:28:57.330Z,28.43
2019-02-17T07:31:47.388Z,27.50
2019-02-17T07:34:37.183Z,25.60
2019-02-17T07:37:33.402Z,22.50
2019-02-17T07:40:18.233Z,21.57
2019-02-17T07:43:08.299Z,27.57
2019-02-17T07:45:58.187Z,27.10
2019-02-17T07:48:48.408Z,35.80
2019-02-17T07:51:38.121Z,27.30
2019-02-17T07:54:28.217Z,32.27
2019-02-17T07:57:18.823Z,25.77
2019-02-17T08:00:09.128Z,33.90
2019-02-17T08:02:58.891Z,30.50
2019-02-17T08:05:48.406Z,28.77
2019-02-17T08:08:38.032Z,25.30
2019-02-17T08:11:28.530Z,26.97
2019-02-17T08:14:18.417Z,27.13
2019-02-17T08:17:08.218Z,28.23
2019-02-17T08:19:58.001Z,28.60
2019-02-17T08:22:48.058Z,31.10
2019-02-17T08:25:37.933Z,26.37
2019-02-17T08:28:27.969Z,31.30
2019-02-17T08:31:17.832Z,34.83
2019-02-17T08:34:08.202Z,27.50
2019-02-17T08:36:58.095Z,30.67
2019-02-17T08:39:47.188Z,29.57
2019-02-17T08:42:37.029Z,33.40
2019-02-17T08:45:27.090Z,38.30
2019-02-17T08:48:17.092Z,33.67
2019-02-17T08:51:07.089Z,35.13
2019-02-17T08:53:57.079Z,36.73
2019-02-17T08:56:47.098Z,32.33
2019-02-17T08:59:36.926Z,32.73
2019-02-17T09:02:25.956Z,36.50
2019-02-17T09:05:15.676Z,36.53
2019-02-17T09:08:05.783Z,38.30
2019-02-17T09:10:55.667Z,43.73
2019-02-17T09:13:48.308Z,34.67
2019-02-17T09:16:37.900Z,31.80
2019-02-17T09:19:27.647Z,38.03
2019-02-17T09:22:18.122Z,34.43
2019-02-17T09:25:10.103Z,33.33
2019-02-17T09:27:59.660Z,33.20
2019-02-17T09:30:49.330Z,31.40
2019-02-17T09:33:39.349Z,33.00
2019-02-17T09:36:28.810Z,33.30
2019-02-17T09:39:18.586Z,30.40
2019-02-17T09:42:08.713Z,35.30
2019-02-17T09:44:59.373Z,36.60
2019-02-17T09:47:49.732Z,34.40
2019-02-17T09:50:39.701Z,33.63
2019-02-17T09:53:29.481Z,37.57
2019-02-17T09:56:19.311Z,29.50
2019-02-17T09:59:09.249Z,37.20
2019-02-17T10:01:59.279Z,34.47
2019-02-17T10:04:49.073Z,38.10
2019-02-17T10:07:38.960Z,33.87
2019-02-17T10:10:29.188Z,33.10
2019-02-17T10:13:19.255Z,33.80
2019-02-17T10:16:08.919Z,37.50
2019-02-17T10:18:58.565Z,35.20
2019-02-17T10:21:48.306Z,37.43
2019-02-17T10:24:37.901Z,29.67
2019-02-17T10:27:27.637Z,28.10
2019-02-17T10:30:18.275Z,32.63
2019-02-17T10:33:09.379Z,28.23
2019-02-17T10:35:59.618Z,31.90
2019-02-17T10:38:49.473Z,32.67
2019-02-17T10:41:39.273Z,37.70
2019-02-17T10:44:28.828Z,34.20
2019-02-17T10:47:18.399Z,34.63
2019-02-17T10:50:10.226Z,34.80
2019-02-17T10:53:00.127Z,39.03
2019-02-17T10:55:50.211Z,33.97
2019-02-17T10:58:40.401Z,30.63
2019-02-17T11:01:30.645Z,39.80
2019-02-17T11:04:20.391Z,38.50
2019-02-17T11:07:10.319Z,45.00
2019-02-17T11:10:00.288Z,32.57
2019-02-17T11:12:49.774Z,39.33
2019-02-17T11:15:39.880Z,33.83
2019-02-17T11:18:29.964Z,40.63
2019-02-17T11:21:19.979Z,43.20
2019-02-17T11:24:09.930Z,29.30
2019-02-17T11:26:59.675Z,39.13
2019-02-17T11:29:49.488Z,33.43
2019-02-17T11:32:38.974Z,34.50
2019-02-17T11:35:29.889Z,33.53
2019-02-17T11:38:20.380Z,36.63
2019-02-17T11:41:12.528Z,33.77
2019-02-17T11:44:01.891Z,33.53
2019-02-17T11:46:52.055Z,34.43
2019-02-17T11:49:41.824Z,30.97
2019-02-17T11:52:31.497Z,30.23
2019-02-17T11:55:22.776Z,38.23
2019-02-17T11:58:12.802Z,38.20
2019-02-17T12:01:05.167Z,41.43
2019-02-17T12:03:53.934Z,31.63
2019-02-17T12:06:43.768Z,32.40
2019-02-17T12:09:33.705Z,34.50
2019-02-17T12:12:23.794Z,39.33
2019-02-17T12:15:14.524Z,30.10
2019-02-17T12:18:04.643Z,30.90
2019-02-17T12:21:03.825Z,38.73
2019-02-17T12:24:17.848Z,36.53
2019-02-17T12:27:28.108Z,38.13
2019-02-17T12:30:21.666Z,34.20
2019-02-17T12:33:19.147Z,32.73
2019-02-17T12:36:03.313Z,32.93
2019-02-17T12:38:52.979Z,32.50
2019-02-17T12:41:42.895Z,35.33
2019-02-17T12:44:32.452Z,29.23
2019-02-17T12:47:22.371Z,34.40
2019-02-17T12:50:13.584Z,33.03
2019-02-17T12:53:04.773Z,32.07
2019-02-17T12:55:54.935Z,35.30
2019-02-17T12:58:45.244Z,27.80
2019-02-17T13:01:35.078Z,36.10
2019-02-17T13:04:24.814Z,33.73
2019-02-17T13:07:14.784Z,32.40
2019-02-17T13:10:05.128Z,34.93
2019-02-17T13:12:54.778Z,36.23
2019-02-17T13:15:44.854Z,36.97
2019-02-17T13:18:34.841Z,37.77
2019-02-17T13:21:25.102Z,38.00
2019-02-17T13:24:14.997Z,41.63
2019-02-17T13:27:05.036Z,34.83
2019-02-17T13:29:55.758Z,31.13
2019-02-17T13:32:45.661Z,34.37
2019-02-17T13:35:35.452Z,31.20
2019-02-17T13:38:25.569Z,35.47
2019-02-17T13:41:15.370Z,34.93
2019-02-17T13:44:05.545Z,33.40
2019-02-17T13:46:55.079Z,26.37
2019-02-17T13:49:45.203Z,33.23
2019-02-17T13:52:35.065Z,32.57
2019-02-17T13:55:24.775Z,30.87
2019-02-17T13:58:14.750Z,34.83
2019-02-17T14:01:04.598Z,28.23
2019-02-17T14:03:54.356Z,29.20
2019-02-17T14:06:44.186Z,28.37
2019-02-17T14:09:34.533Z,32.23
2019-02-17T14:12:27.224Z,31.80
2019-02-17T14:15:17.506Z,29.53
2019-02-17T14:18:07.261Z,31.47
2019-02-17T14:20:57.454Z,28.57
2019-02-17T14:23:47.437Z,30.80
2019-02-17T14:26:37.280Z,33.40
2019-02-17T14:29:27.015Z,32.73
2019-02-17T14:32:17.078Z,31.53
2019-02-17T14:35:06.565Z,32.70
2019-02-17T14:37:56.620Z,23.60
2019-02-17T14:40:46.436Z,32.53
2019-02-17T14:43:35.752Z,31.50
2019-02-17T14:46:25.407Z,26.87
2019-02-17T14:49:15.149Z,33.83
2019-02-17T14:52:04.975Z,33.00
2019-02-17T14:54:55.013Z,25.77
2019-02-17T14:57:44.738Z,36.47
2019-02-17T15:00:34.744Z,33.53
2019-02-17T15:03:24.656Z,30.33
2019-02-17T15:06:14.635Z,33.73
2019-02-17T15:09:07.089Z,29.87
2019-02-17T15:11:57.753Z,32.67
2019-02-17T15:14:48.032Z,31.70
2019-02-17T15:17:37.788Z,33.13
2019-02-17T15:20:27.574Z,37.90
2019-02-17T15:23:17.124Z,34.43
2019-02-17T15:26:07.291Z,34.87
2019-02-17T15:28:57.329Z,31.23
2019-02-17T15:31:47.214Z,31.00
2019-02-17T15:34:36.714Z,35.20
2019-02-17T15:37:26.793Z,30.17
2019-02-17T15:40:16.002Z,35.10
2019-02-17T15:43:06.072Z,30.40
2019-02-17T15:45:55.900Z,31.70
2019-02-17T15:48:45.730Z,28.80
2019-02-17T15:51:35.923Z,36.00
2019-02-17T15:54:25.957Z,27.73
2019-02-17T15:57:16.033Z,28.50
2019-02-17T16:00:08.040Z,33.90
2019-02-17T16:02:57.930Z,29.63
2019-02-17T16:05:48.021Z,28.83
2019-02-17T16:08:38.192Z,33.93
2019-02-17T16:11:28.001Z,29.37
2019-02-17T16:14:18.178Z,32.13
2019-02-17T16:17:08.493Z,32.23
2019-02-17T16:19:58.509Z,29.00
2019-02-17T16:22:48.517Z,44.10
2019-02-17T16:25:38.389Z,40.23
2019-02-17T16:28:28.421Z,40.87
2019-02-17T16:31:18.104Z,41.80
2019-02-17T16:34:08.140Z,36.73
2019-02-17T16:36:57.860Z,37.73
2019-02-17T16:39:47.194Z,42.77
2019-02-17T16:42:36.820Z,55.67
2019-02-17T16:45:26.077Z,41.73
2019-02-17T16:48:16.069Z,44.13
2019-02-17T16:51:07.024Z,48.53
2019-02-17T16:53:57.440Z,44.83
2019-02-17T16:56:47.482Z,51.87
2019-02-17T16:59:37.331Z,40.37
2019-02-17T17:02:27.427Z,47.93
2019-02-17T17:05:16.969Z,53.70
2019-02-17T17:08:07.025Z,57.03
2019-02-17T17:10:56.401Z,62.63
2019-02-17T17:13:46.208Z,38.90
2019-02-17T17:16:35.684Z,42.67
2019-02-17T17:19:25.746Z,33.07
2019-02-17T17:22:15.030Z,31.90
2019-02-17T17:25:05.741Z,34.60
2019-02-17T17:27:55.216Z,32.00
2019-02-17T17:30:44.821Z,33.00
2019-02-17T17:33:34.550Z,42.77
2019-02-17T17:36:24.013Z,43.70
2019-02-17T17:39:13.996Z,54.47
2019-02-17T17:42:03.919Z,48.30
2019-02-17T17:44:54.373Z,43.87
2019-02-17T17:47:43.973Z,44.43
2019-02-17T17:50:33.974Z,41.37
2019-02-17T17:53:24.092Z,38.30
2019-02-17T17:56:13.759Z,43.43
2019-02-17T17:59:03.533Z,33.20
2019-02-17T18:01:52.897Z,34.27
2019-02-17T18:04:42.923Z,47.63
2019-02-17T18:07:32.629Z,35.70
2019-02-17T18:10:22.508Z,35.47
2019-02-17T18:13:12.536Z,44.63
2019-02-17T18:16:02.598Z,45.90
2019-02-17T18:18:52.615Z,39.23
2019-02-17T18:21:41.991Z,37.87
2019-02-17T18:24:43.692Z,41.23
2019-02-17T18:27:33.637Z,39.10
2019-02-17T18:30:23.715Z,34.57
2019-02-17T18:33:14.006Z,34.77
2019-02-17T18:36:03.665Z,34.43
2019-02-17T18:38:54.114Z,32.57
2019-02-17T18:41:43.682Z,35.53
2019-02-17T18:44:33.716Z,34.03
2019-02-17T18:47:23.340Z,35.43
2019-02-17T18:50:14.100Z,29.70
2019-02-17T18:53:03.288Z,44.30
2019-02-17T18:55:53.065Z,40.03
2019-02-17T18:58:42.285Z,42.00
2019-02-17T19:01:32.106Z,43.77
2019-02-17T19:04:21.805Z,35.90
2019-02-17T19:07:11.692Z,47.63
2019-02-17T19:10:01.617Z,52.30
2019-02-17T19:12:51.472Z,45.83
2019-02-17T19:15:41.147Z,48.83
2019-02-17T19:18:31.161Z,40.30
2019-02-17T19:21:20.945Z,46.03
2019-02-17T19:24:11.050Z,38.33
2019-02-17T19:27:00.898Z,31.97
2019-02-17T19:29:50.735Z,29.40
2019-02-17T19:32:40.646Z,29.83
2019-02-17T19:35:30.623Z,28.60
2019-02-17T19:38:20.209Z,25.03
2019-02-17T19:41:09.938Z,21.63
2019-02-17T19:43:59.756Z,19.30
2019-02-17T19:46:49.707Z,21.40
2019-02-17T19:49:39.723Z,29.27
2019-02-17T19:52:29.964Z,17.50
2019-02-17T19:55:19.700Z,37.10
2019-02-17T19:58:08.995Z,21.47
2019-02-17T20:00:58.282Z,20.80
2019-02-17T20:04:18.413Z,30.60
2019-02-17T20:07:07.702Z,18.47
2019-02-17T20:09:57.537Z,22.40
2019-02-17T20:12:47.209Z,23.63
2019-02-17T20:15:36.883Z,21.70
2019-02-17T20:18:26.189Z,24.00
2019-02-17T20:21:15.606Z,24.53
2019-02-17T20:24:07.986Z,23.30
2019-02-17T20:26:56.973Z,25.97
2019-02-17T20:29:47.099Z,20.90
2019-02-17T20:32:37.331Z,21.33
2019-02-17T20:35:27.228Z,24.33
2019-02-17T20:38:17.277Z,20.07
2019-02-17T20:41:07.038Z,20.83
2019-02-17T20:43:56.812Z,18.70
2019-02-17T20:46:47.147Z,23.40
2019-02-17T20:49:37.235Z,17.97
2019-02-17T20:52:27.104Z,20.07
2019-02-17T20:55:21.665Z,19.50
2019-02-17T20:58:11.760Z,24.30
2019-02-17T21:01:01.834Z,22.23
2019-02-17T21:03:51.623Z,28.40
2019-02-17T21:06:41.917Z,29.83
2019-02-17T21:09:32.573Z,20.23
2019-02-17T21:12:22.657Z,20.90
2019-02-17T21:15:13.266Z,24.03
2019-02-17T21:18:03.366Z,22.30
2019-02-17T21:20:53.133Z,22.30
2019-02-17T21:23:43.057Z,26.97
2019-02-17T21:26:32.580Z,23.50
2019-02-17T21:29:22.442Z,22.30
2019-02-17T21:32:12.384Z,23.57
2019-02-17T21:35:02.471Z,31.00
2019-02-17T21:37:52.458Z,28.10
2019-02-17T21:40:42.519Z,32.00
2019-02-17T21:43:32.100Z,25.87
2019-02-17T21:46:21.852Z,19.97
2019-02-17T21:49:11.768Z,19.57
2019-02-17T21:52:02.351Z,27.70
2019-02-17T21:54:52.357Z,23.13
2019-02-17T21:57:42.550Z,26.80
2019-02-17T22:00:32.166Z,20.93
2019-02-17T22:03:21.688Z,26.07
2019-02-17T22:06:11.949Z,20.40
2019-02-17T22:09:01.439Z,27.47
2019-02-17T22:11:53.241Z,22.33
2019-02-17T22:14:43.347Z,24.60
2019-02-17T22:17:34.483Z,21.93
2019-02-17T22:20:24.520Z,21.90
2019-02-17T22:23:14.590Z,27.57
2019-02-17T22:26:04.319Z,22.40
2019-02-17T22:28:54.371Z,19.33
2019-02-17T22:31:44.265Z,20.33
2019-02-17T22:34:33.980Z,23.50
2019-02-17T22:37:23.738Z,24.30
2019-02-17T22:40:13.493Z,23.37
2019-02-17T22:43:03.117Z,21.63
2019-02-17T22:45:53.300Z,23.20
2019-02-17T22:48:42.891Z,24.17
2019-02-17T22:51:32.714Z,42.40
2019-02-17T22:54:22.808Z,106.00
2019-02-17T22:57:12.154Z,27.53
2019-02-17T23:00:01.836Z,22.40
2019-02-17T23:02:53.464Z,22.23
2019-02-17T23:05:43.899Z,20.07
2019-02-17T23:08:33.920Z,23.43
2019-02-17T23:11:24.077Z,21.80
2019-02-17T23:14:14.423Z,24.53
2019-02-17T23:17:03.970Z,16.47
2019-02-17T23:19:54.120Z,21.90
2019-02-17T23:22:44.215Z,21.87
2019-02-17T23:25:34.589Z,24.10
2019-02-17T23:28:24.637Z,24.70
2019-02-17T23:31:16.961Z,21.53
2019-02-17T23:34:07.012Z,22.30
2019-02-17T23:37:04.001Z,18.17
2019-02-17T23:39:50.524Z,30.40
2019-02-17T23:42:40.493Z,20.53
2019-02-17T23:45:30.314Z,23.83
2019-02-17T23:48:20.101Z,18.53
2019-02-17T23:51:10.178Z,24.70
2019-02-17T23:54:00.456Z,22.73
2019-02-17T23:56:52.358Z,20.63
2019-02-17T23:59:42.130Z,20.53
